createdAt,value
2019-03-05T00:01:59.386Z,6.34
2019-03-05T00:04:31.339Z,6.35
2019-03-05T00:07:03.182Z,6.33
2019-03-05T00:09:35.206Z,6.53
2019-03-05T00:12:07.186Z,6.64
2019-03-05T00:14:39.138Z,6.65
2019-03-05T00:17:11.055Z,6.57
2019-03-05T00:19:42.982Z,6.58
2019-03-05T00:22:16.483Z,6.63
2019-03-05T00:25:08.834Z,6.70
2019-03-05T00:28:07.271Z,6.73
2019-03-05T00:30:47.794Z,6.73
2019-03-05T00:33:55.581Z,6.86
2019-03-05T00:37:04.068Z,6.79
2019-03-05T00:40:37.443Z,6.67
2019-03-05T00:43:47.085Z,6.69
2019-03-05T00:47:01.822Z,6.70
2019-03-05T00:50:16.266Z,6.76
2019-03-05T00:53:50.276Z,6.76
2019-03-05T00:56:46.057Z,6.73
2019-03-05T00:59:52.300Z,6.90
2019-03-05T01:03:02.446Z,6.79
2019-03-05T01:06:22.288Z,6.79
2019-03-05T01:08:56.262Z,6.72
2019-03-05T01:11:28.926Z,6.71
2019-03-05T01:14:01.335Z,6.72
2019-03-05T01:16:34.476Z,6.56
2019-03-05T01:19:06.383Z,6.39
2019-03-05T01:21:38.300Z,6.38
2019-03-05T01:24:10.337Z,6.34
2019-03-05T01:26:42.210Z,6.22
2019-03-05T01:29:14.201Z,6.21
2019-03-05T01:31:58.982Z,6.20
2019-03-05T01:34:41.923Z,6.29
2019-03-05T01:37:13.891Z,6.33
2019-03-05T01:39:57.991Z,6.35
2019-03-05T01:42:29.828Z,6.32
2019-03-05T01:45:01.714Z,6.44
2019-03-05T01:47:34.764Z,6.26
2019-03-05T01:50:08.213Z,6.31
2019-03-05T01:52:40.015Z,6.39
2019-03-05T01:55:11.899Z,6.41
2019-03-05T01:57:43.774Z,6.40
2019-03-05T02:00:16.154Z,6.35
2019-03-05T02:02:49.288Z,6.34
2019-03-05T02:05:22.062Z,6.21
2019-03-05T02:07:54.561Z,6.21
2019-03-05T02:10:27.725Z,6.15
2019-03-05T02:12:59.616Z,6.17
2019-03-05T02:15:31.431Z,6.11
2019-03-05T02:18:03.413Z,6.10
2019-03-05T02:20:35.300Z,6.09
2019-03-05T02:23:32.824Z,6.04
2019-03-05T02:27:08.140Z,6.11
2019-03-05T02:30:26.871Z,6.03
2019-03-05T02:33:51.042Z,5.99
2019-03-05T02:37:07.444Z,5.95
2019-03-05T02:40:23.575Z,5.94
2019-03-05T02:43:31.465Z,5.96
2019-03-05T02:46:49.391Z,5.94
2019-03-05T02:49:36.698Z,5.95
2019-03-05T02:53:14.029Z,5.89
2019-03-05T02:56:25.114Z,5.85
2019-03-05T02:58:54.415Z,5.81
2019-03-05T03:01:50.929Z,5.79
2019-03-05T03:04:26.014Z,5.79
2019-03-05T03:06:57.914Z,5.85
2019-03-05T03:10:16.399Z,5.78
2019-03-05T03:12:50.827Z,5.72
2019-03-05T03:15:22.941Z,5.76
2019-03-05T03:17:56.039Z,5.78
2019-03-05T03:20:28.091Z,5.82
2019-03-05T03:23:03.174Z,5.82
2019-03-05T03:25:35.102Z,5.87
2019-03-05T03:28:08.012Z,5.93
2019-03-05T03:30:40.041Z,6.03
2019-03-05T03:33:16.097Z,5.98
2019-03-05T03:35:48.044Z,6.01
2019-03-05T03:38:19.965Z,6.19
2019-03-05T03:40:52.010Z,6.28
2019-03-05T03:43:23.898Z,6.33
2019-03-05T03:45:55.784Z,6.38
2019-03-05T03:48:27.802Z,6.42
2019-03-05T03:50:59.982Z,6.46
2019-03-05T03:53:32.015Z,6.56
2019-03-05T03:56:03.971Z,6.58
2019-03-05T03:58:35.783Z,6.63
2019-03-05T04:01:16.077Z,6.70
2019-03-05T04:03:48.178Z,6.73
2019-03-05T04:06:29.208Z,6.78
2019-03-05T04:09:01.516Z,6.75
2019-03-05T04:11:37.761Z,6.74
2019-03-05T04:14:08.950Z,6.84
2019-03-05T04:16:41.222Z,6.82
2019-03-05T04:19:15.441Z,6.78
2019-03-05T04:21:50.638Z,6.81
2019-03-05T04:24:26.606Z,6.81
2019-03-05T04:26:58.411Z,6.83
2019-03-05T04:29:36.776Z,6.90
2019-03-05T04:32:11.220Z,6.89
2019-03-05T04:34:43.481Z,6.96
2019-03-05T04:37:15.904Z,6.97
2019-03-05T04:39:51.226Z,6.99
2019-03-05T04:42:23.150Z,7.13
2019-03-05T04:45:01.156Z,7.07
2019-03-05T04:47:39.232Z,6.97
2019-03-05T04:50:20.961Z,6.99
2019-03-05T04:52:58.242Z,7.04
2019-03-05T04:55:30.104Z,7.24
2019-03-05T04:58:04.112Z,7.18
2019-03-05T05:00:36.148Z,7.09
2019-03-05T05:03:09.370Z,7.21
2019-03-05T05:05:41.184Z,7.25
2019-03-05T05:08:13.188Z,7.18
2019-03-05T05:10:45.073Z,7.21
2019-03-05T05:13:17.102Z,7.24
2019-03-05T05:15:48.980Z,7.32
2019-03-05T05:18:20.974Z,7.21
2019-03-05T05:20:53.069Z,7.34
2019-03-05T05:23:24.999Z,7.39
2019-03-05T05:25:56.956Z,7.32
2019-03-05T05:28:28.820Z,7.11
2019-03-05T05:31:00.721Z,7.03
2019-03-05T05:33:33.119Z,7.06
2019-03-05T05:36:05.357Z,7.19
2019-03-05T05:38:40.435Z,7.01
2019-03-05T05:41:12.516Z,7.04
2019-03-05T05:47:23.392Z,6.96
2019-03-05T05:49:55.269Z,7.03
2019-03-05T05:52:27.740Z,7.01
2019-03-05T05:54:59.632Z,7.04
2019-03-05T05:57:32.355Z,7.24
2019-03-05T06:00:04.494Z,7.14
2019-03-05T06:02:36.584Z,7.30
2019-03-05T06:05:08.795Z,7.31
2019-03-05T06:07:41.896Z,7.24
2019-03-05T06:10:14.127Z,7.35
2019-03-05T06:12:46.212Z,7.33
2019-03-05T06:15:18.484Z,7.34
2019-03-05T06:17:58.851Z,7.48
2019-03-05T06:20:30.920Z,7.44
2019-03-05T06:23:02.924Z,7.28
2019-03-05T06:25:34.989Z,7.46
2019-03-05T06:28:07.268Z,7.42
2019-03-05T06:30:39.484Z,7.46
2019-03-05T06:33:11.438Z,7.56
2019-03-05T06:35:43.975Z,7.69
2019-03-05T06:38:16.087Z,7.84
2019-03-05T06:40:48.288Z,7.92
2019-03-05T06:43:20.525Z,7.98
2019-03-05T06:45:52.631Z,7.89
2019-03-05T06:48:24.693Z,7.90
2019-03-05T06:50:56.687Z,7.88
2019-03-05T06:53:28.713Z,7.84
2019-03-05T06:56:00.605Z,7.81
2019-03-05T06:58:32.498Z,7.85
2019-03-05T07:01:04.752Z,7.87
2019-03-05T07:03:36.733Z,7.77
2019-03-05T07:06:48.843Z,7.76
2019-03-05T07:10:24.503Z,7.67
2019-03-05T07:13:21.470Z,7.84
2019-03-05T07:16:29.055Z,7.65
2019-03-05T07:19:57.598Z,7.62
2019-03-05T07:22:45.861Z,7.52
2019-03-05T07:25:17.761Z,7.56
2019-03-05T07:27:59.626Z,7.40
2019-03-05T07:30:31.511Z,7.33
2019-03-05T07:33:03.481Z,7.35
2019-03-05T07:35:36.050Z,7.39
2019-03-05T07:38:08.176Z,7.61
2019-03-05T07:40:40.098Z,7.83
2019-03-05T07:43:12.061Z,7.85
2019-03-05T07:45:44.074Z,8.01
2019-03-05T07:48:16.110Z,7.86
2019-03-05T07:50:48.017Z,7.74
2019-03-05T07:53:19.999Z,7.68
2019-03-05T07:55:51.864Z,7.58
2019-03-05T07:58:23.799Z,7.61
2019-03-05T08:00:55.784Z,7.75
2019-03-05T08:03:27.688Z,7.88
2019-03-05T08:05:59.525Z,7.93
2019-03-05T08:09:44.459Z,8.11
2019-03-05T08:13:06.942Z,8.33
2019-03-05T08:16:10.380Z,8.75
2019-03-05T08:18:42.199Z,9.03
2019-03-05T08:21:14.224Z,9.41
2019-03-05T08:23:48.379Z,9.45
2019-03-05T08:26:19.791Z,9.67
2019-03-05T08:28:51.714Z,9.68
2019-03-05T08:31:23.567Z,9.58
2019-03-05T08:33:55.518Z,9.68
2019-03-05T08:36:27.439Z,9.72
2019-03-05T08:38:59.430Z,9.75
2019-03-05T08:41:31.360Z,10.27
2019-03-05T08:44:03.320Z,10.03
2019-03-05T08:46:35.348Z,10.03
2019-03-05T08:49:07.286Z,10.19
2019-03-05T08:51:39.217Z,10.43
2019-03-05T08:54:11.078Z,10.27
2019-03-05T08:56:42.955Z,10.41
2019-03-05T08:59:14.815Z,10.33
2019-03-05T09:01:46.735Z,10.38
2019-03-05T09:04:18.623Z,9.98
2019-03-05T09:06:51.937Z,9.80
2019-03-05T09:09:23.782Z,9.77
2019-03-05T09:11:56.055Z,9.67
2019-03-05T09:14:27.946Z,9.65
2019-03-05T09:16:59.890Z,9.37
2019-03-05T09:19:31.818Z,9.37
2019-03-05T09:22:04.892Z,9.48
2019-03-05T09:24:36.858Z,9.48
2019-03-05T09:27:08.747Z,9.62
2019-03-05T09:29:40.640Z,9.67
2019-03-05T09:32:12.576Z,9.75
2019-03-05T09:34:45.628Z,9.69
2019-03-05T09:37:17.551Z,9.83
2019-03-05T09:39:49.551Z,10.10
2019-03-05T09:42:21.406Z,9.86
2019-03-05T09:44:54.439Z,9.71
2019-03-05T09:47:26.346Z,9.39
2019-03-05T09:49:59.355Z,9.17
2019-03-05T09:52:31.301Z,9.30
2019-03-05T09:55:03.381Z,9.51
2019-03-05T09:57:37.966Z,9.93
2019-03-05T10:00:14.830Z,9.97
2019-03-05T10:02:46.791Z,10.01
2019-03-05T10:05:18.754Z,10.09
2019-03-05T10:07:50.882Z,9.98
2019-03-05T10:10:25.177Z,10.42
2019-03-05T10:12:59.124Z,10.69
2019-03-05T10:15:31.718Z,10.82
2019-03-05T10:18:12.162Z,10.74
2019-03-05T10:20:37.461Z,11.08
2019-03-05T10:23:09.356Z,11.14
2019-03-05T10:25:41.364Z,10.77
2019-03-05T10:28:13.424Z,10.90
2019-03-05T10:30:45.467Z,11.07
2019-03-05T10:33:18.428Z,11.24
2019-03-05T10:35:50.467Z,11.38
2019-03-05T10:38:22.455Z,11.22
2019-03-05T10:40:54.770Z,11.09
2019-03-05T10:43:26.693Z,11.19
2019-03-05T10:45:58.609Z,11.15
2019-03-05T10:48:30.766Z,10.67
2019-03-05T10:51:02.648Z,10.64
2019-03-05T10:53:34.813Z,11.05
2019-03-05T10:56:07.626Z,11.31
2019-03-05T10:58:39.960Z,11.58
2019-03-05T11:01:12.569Z,11.68
2019-03-05T11:03:44.685Z,11.42
2019-03-05T11:06:16.659Z,11.71
2019-03-05T11:08:50.432Z,11.67
2019-03-05T11:11:22.447Z,12.04
2019-03-05T11:13:54.430Z,11.51
2019-03-05T11:16:30.791Z,11.06
2019-03-05T11:19:00.539Z,11.09
2019-03-05T11:21:32.523Z,11.17
2019-03-05T11:24:04.677Z,10.91
2019-03-05T11:26:36.639Z,10.62
2019-03-05T11:29:08.577Z,10.43
2019-03-05T11:31:40.845Z,10.59
2019-03-05T11:34:13.313Z,10.98
2019-03-05T11:36:45.486Z,11.36
2019-03-05T11:39:17.842Z,11.80
2019-03-05T11:41:49.760Z,11.98
2019-03-05T11:50:05.759Z,11.83
2019-03-05T11:52:37.940Z,11.86
2019-03-05T11:55:12.563Z,11.35
2019-03-05T11:57:44.651Z,11.09
2019-03-05T12:00:29.338Z,10.68
2019-03-05T12:03:01.318Z,10.52
2019-03-05T12:05:33.391Z,10.87
2019-03-05T12:08:05.478Z,10.98
2019-03-05T12:10:37.491Z,11.27
2019-03-05T12:13:09.847Z,11.07
2019-03-05T12:15:41.945Z,10.80
2019-03-05T12:18:13.919Z,10.42
2019-03-05T12:20:45.835Z,10.02
2019-03-05T12:23:17.854Z,9.88
2019-03-05T12:25:49.848Z,9.59
2019-03-05T12:28:21.811Z,9.48
2019-03-05T12:30:53.943Z,9.91
2019-03-05T12:33:25.821Z,10.41
2019-03-05T12:35:57.650Z,10.83
2019-03-05T12:38:29.525Z,10.40
2019-03-05T12:41:01.369Z,10.56
2019-03-05T12:43:33.336Z,10.48
2019-03-05T12:46:05.331Z,10.59
2019-03-05T12:48:40.290Z,10.47
2019-03-05T12:51:11.982Z,10.05
2019-03-05T12:53:43.949Z,10.03
2019-03-05T12:56:23.441Z,9.91
2019-03-05T12:58:49.412Z,9.92
2019-03-05T13:01:21.340Z,10.02
2019-03-05T13:03:53.252Z,9.88
2019-03-05T13:06:25.073Z,9.95
2019-03-05T13:08:57.044Z,10.04
2019-03-05T13:11:29.218Z,10.30
2019-03-05T13:14:06.096Z,11.06
2019-03-05T13:16:35.250Z,11.43
2019-03-05T13:19:09.559Z,11.59
2019-03-05T13:21:44.260Z,11.16
2019-03-05T13:24:15.443Z,11.13
2019-03-05T13:26:47.300Z,11.03
2019-03-05T13:29:20.582Z,11.47
2019-03-05T13:31:53.703Z,11.85
2019-03-05T13:34:25.622Z,11.92
2019-03-05T13:36:57.545Z,12.05
2019-03-05T13:39:29.412Z,11.48
2019-03-05T13:42:01.226Z,10.98
2019-03-05T13:44:35.565Z,10.62
2019-03-05T13:47:13.345Z,10.46
2019-03-05T13:50:24.190Z,9.18
2019-03-05T13:53:26.609Z,8.74
2019-03-05T13:57:00.613Z,7.95
2019-03-05T13:59:50.588Z,7.53
2019-03-05T14:02:29.954Z,7.05
2019-03-05T14:05:38.761Z,6.74
2019-03-05T14:09:23.909Z,6.32
2019-03-05T14:11:55.928Z,5.62
2019-03-05T14:14:32.128Z,5.02
2019-03-05T14:17:37.130Z,4.76
2019-03-05T14:20:13.563Z,4.57
2019-03-05T14:22:45.495Z,4.40
2019-03-05T14:25:20.561Z,4.40
2019-03-05T14:27:52.551Z,4.44
2019-03-05T14:30:24.612Z,4.45
2019-03-05T14:32:56.523Z,4.70
2019-03-05T14:35:32.200Z,5.05
2019-03-05T14:38:04.255Z,5.39
2019-03-05T14:40:37.917Z,5.63
2019-03-05T14:43:10.268Z,5.82
2019-03-05T14:45:42.200Z,5.80
2019-03-05T14:48:19.829Z,5.74
2019-03-05T14:50:51.919Z,5.75
2019-03-05T14:53:23.787Z,5.72
2019-03-05T14:55:55.741Z,5.71
2019-03-05T14:58:28.037Z,5.37
2019-03-05T15:00:59.979Z,6.02
2019-03-05T15:03:31.851Z,6.16
2019-03-05T15:06:04.261Z,6.37
2019-03-05T15:08:36.304Z,6.39
2019-03-05T15:11:09.694Z,6.38
2019-03-05T15:13:41.815Z,6.18
2019-03-05T15:16:14.079Z,6.11
2019-03-05T15:18:48.982Z,6.03
2019-03-05T15:21:21.367Z,5.93
2019-03-05T15:23:53.435Z,5.84
2019-03-05T15:26:28.737Z,5.80
2019-03-05T15:29:00.689Z,5.79
2019-03-05T15:31:34.306Z,5.89
2019-03-05T15:34:07.278Z,5.94
2019-03-05T15:36:41.385Z,6.15
2019-03-05T15:39:15.622Z,6.24
2019-03-05T15:41:48.201Z,6.19
2019-03-05T15:44:20.926Z,6.19
2019-03-05T15:46:56.280Z,6.21
2019-03-05T15:49:28.792Z,6.35
2019-03-05T15:52:01.208Z,6.41
2019-03-05T15:54:33.323Z,6.43
2019-03-05T15:57:05.556Z,6.53
2019-03-05T15:59:38.052Z,6.64
2019-03-05T16:02:10.827Z,6.83
2019-03-05T16:04:46.177Z,6.78
2019-03-05T16:07:22.999Z,6.63
2019-03-05T16:09:55.419Z,6.53
2019-03-05T16:12:27.497Z,6.38
2019-03-05T16:15:05.196Z,6.26
2019-03-05T16:17:37.788Z,6.00
2019-03-05T16:20:11.832Z,5.76
2019-03-05T16:22:43.972Z,5.55
2019-03-05T16:25:16.998Z,5.42
2019-03-05T16:27:50.927Z,5.31
2019-03-05T16:30:42.504Z,5.26
2019-03-05T16:33:32.387Z,5.14
2019-03-05T16:36:29.198Z,5.05
2019-03-05T16:39:10.998Z,4.95
2019-03-05T16:42:05.217Z,4.90
2019-03-05T16:44:47.603Z,4.88
2019-03-05T16:47:31.215Z,4.80
2019-03-05T16:50:21.014Z,4.73
2019-03-05T16:53:26.126Z,4.66
2019-03-05T16:56:16.174Z,4.61
2019-03-05T16:59:05.894Z,4.65
2019-03-05T17:01:44.998Z,4.63
2019-03-05T17:04:39.190Z,4.63
2019-03-05T17:07:35.910Z,4.72
2019-03-05T17:10:37.778Z,4.76
2019-03-05T17:13:10.622Z,4.83
2019-03-05T17:15:43.161Z,4.87
2019-03-05T17:18:15.270Z,4.91
2019-03-05T17:20:47.412Z,4.91
2019-03-05T17:23:19.524Z,5.07
2019-03-05T17:25:51.608Z,5.39
2019-03-05T17:28:23.522Z,5.70
2019-03-05T17:30:55.590Z,5.78
2019-03-05T17:33:27.636Z,5.93
2019-03-05T17:35:59.766Z,5.88
2019-03-05T17:38:32.120Z,5.60
2019-03-05T17:41:04.157Z,5.48
2019-03-05T17:43:36.675Z,5.27
2019-03-05T17:46:08.797Z,5.09
2019-03-05T17:48:42.538Z,4.91
2019-03-05T17:51:14.622Z,4.75
2019-03-05T17:53:48.232Z,4.75
2019-03-05T17:56:20.354Z,4.69
2019-03-05T17:58:52.306Z,4.62
2019-03-05T18:01:24.640Z,4.99
2019-03-05T18:03:56.651Z,4.76
2019-03-05T18:06:28.687Z,4.72
2019-03-05T18:09:01.644Z,4.77
2019-03-05T18:11:35.470Z,4.81
2019-03-05T18:14:08.076Z,4.82
2019-03-05T18:16:40.291Z,4.81
2019-03-05T18:19:12.398Z,4.83
2019-03-05T18:21:44.546Z,4.79
2019-03-05T18:24:16.487Z,4.71
2019-03-05T18:26:48.807Z,4.68
2019-03-05T18:29:20.799Z,4.68
2019-03-05T18:31:53.112Z,4.73
2019-03-05T18:34:27.512Z,4.77
2019-03-05T18:36:59.518Z,4.81
2019-03-05T18:39:32.916Z,4.89
2019-03-05T18:42:05.082Z,4.96
2019-03-05T18:44:39.542Z,5.02
2019-03-05T18:47:11.349Z,5.19
2019-03-05T18:49:43.506Z,5.52
2019-03-05T18:52:15.656Z,5.43
2019-03-05T18:54:47.895Z,5.48
2019-03-05T18:57:20.099Z,5.35
2019-03-05T18:59:52.515Z,5.50
2019-03-05T19:02:24.994Z,5.51
2019-03-05T19:04:57.967Z,5.57
2019-03-05T19:07:30.725Z,5.51
2019-03-05T19:10:02.962Z,5.59
2019-03-05T19:12:36.808Z,5.81
2019-03-05T19:15:10.701Z,5.64
2019-03-05T19:17:45.106Z,5.45
2019-03-05T19:20:22.219Z,5.25
2019-03-05T19:22:54.607Z,5.05
2019-03-05T19:25:29.129Z,4.92
2019-03-05T19:28:01.506Z,4.79
2019-03-05T19:30:35.629Z,4.48
2019-03-05T19:33:07.859Z,4.44
2019-03-05T19:35:39.898Z,4.18
2019-03-05T19:38:12.118Z,4.24
2019-03-05T19:40:44.365Z,4.14
2019-03-05T19:43:16.530Z,4.18
2019-03-05T19:45:48.583Z,4.24
2019-03-05T19:48:27.458Z,4.26
2019-03-05T19:50:55.385Z,4.33
2019-03-05T19:53:29.815Z,4.33
2019-03-05T19:56:02.343Z,4.31
2019-03-05T19:58:35.959Z,4.19
2019-03-05T20:01:17.180Z,4.17
2019-03-05T20:03:49.503Z,4.15
2019-03-05T20:06:22.441Z,4.10
2019-03-05T20:08:55.987Z,4.05
2019-03-05T20:11:28.641Z,4.04
2019-03-05T20:14:00.992Z,4.10
2019-03-05T20:16:33.286Z,4.07
2019-03-05T20:19:05.750Z,4.08
2019-03-05T20:21:43.717Z,4.07
2019-03-05T20:24:16.586Z,4.08
2019-03-05T20:26:54.749Z,4.15
2019-03-05T20:29:27.405Z,4.21
2019-03-05T20:32:00.539Z,4.23
2019-03-05T20:34:36.942Z,4.25
2019-03-05T20:37:10.190Z,4.29
2019-03-05T20:39:46.644Z,4.33
2019-03-05T20:42:19.314Z,4.38
2019-03-05T20:44:52.632Z,4.42
2019-03-05T20:47:28.504Z,4.47
2019-03-05T20:50:01.242Z,4.49
2019-03-05T20:52:37.593Z,4.52
2019-03-05T20:55:15.091Z,4.53
2019-03-05T20:57:48.642Z,4.49
2019-03-05T21:00:32.113Z,4.46
2019-03-05T21:03:06.269Z,4.43
2019-03-05T21:05:43.537Z,4.41
2019-03-05T21:08:29.101Z,4.32
2019-03-05T21:12:56.504Z,4.23
2019-03-05T21:14:49.220Z,4.26
2019-03-05T21:17:21.057Z,4.35
2019-03-05T21:19:53.262Z,4.45
2019-03-05T21:22:25.469Z,4.50
2019-03-05T21:24:57.788Z,4.51
2019-03-05T21:27:34.814Z,4.44
2019-03-05T21:30:03.602Z,4.31
2019-03-05T21:32:35.955Z,4.17
2019-03-05T21:35:09.581Z,4.12
2019-03-05T21:37:41.681Z,4.05
2019-03-05T21:40:23.181Z,4.03
2019-03-05T21:42:55.455Z,3.94
2019-03-05T21:45:34.454Z,3.91
2019-03-05T21:48:07.484Z,3.97
2019-03-05T21:50:39.557Z,3.97
2019-03-05T21:53:11.656Z,3.91
2019-03-05T21:55:43.708Z,3.87
2019-03-05T21:58:17.020Z,3.90
2019-03-05T22:00:48.980Z,3.90
2019-03-05T22:03:21.029Z,3.87
2019-03-05T22:05:53.044Z,3.83
2019-03-05T22:08:25.247Z,3.78
2019-03-05T22:10:57.328Z,3.73
2019-03-05T22:13:29.820Z,3.68
2019-03-05T22:16:02.176Z,3.59
2019-03-05T22:18:34.662Z,3.52
2019-03-05T22:21:07.254Z,3.48
2019-03-05T22:23:39.451Z,3.38
2019-03-05T22:26:11.328Z,3.26
2019-03-05T22:28:43.371Z,3.10
2019-03-05T22:31:15.293Z,3.12
2019-03-05T22:33:47.256Z,3.08
2019-03-05T22:36:19.191Z,3.00
2019-03-05T22:38:51.328Z,2.99
2019-03-05T22:41:23.206Z,2.86
2019-03-05T22:43:55.283Z,2.83
2019-03-05T22:46:27.262Z,2.82
2019-03-05T22:48:59.444Z,2.83
2019-03-05T22:51:31.412Z,2.74
2019-03-05T22:54:03.462Z,2.76
2019-03-05T22:56:35.287Z,2.71
2019-03-05T22:59:08.435Z,2.78
2019-03-05T23:01:43.338Z,2.73
2019-03-05T23:04:21.091Z,2.85
2019-03-05T23:06:53.170Z,2.94
2019-03-05T23:09:26.949Z,2.83
2019-03-05T23:11:58.992Z,2.95
2019-03-05T23:14:31.063Z,2.85
2019-03-05T23:17:03.703Z,2.78
2019-03-05T23:19:36.022Z,2.74
2019-03-05T23:22:08.259Z,2.69
2019-03-05T23:24:40.414Z,2.63
2019-03-05T23:27:12.546Z,2.65
2019-03-05T23:29:46.007Z,2.63
2019-03-05T23:32:20.061Z,2.68
2019-03-05T23:34:53.047Z,2.67
2019-03-05T23:37:25.028Z,2.64
2019-03-05T23:39:56.898Z,2.62
2019-03-05T23:42:28.901Z,2.57
2019-03-05T23:45:00.771Z,2.50
2019-03-05T23:47:35.543Z,2.49
2019-03-05T23:50:07.753Z,2.37
2019-03-05T23:52:42.264Z,2.31
2019-03-05T23:55:14.751Z,2.25
2019-03-05T23:57:47.048Z,2.21
